Time;durP1;ratioP1;P1;durP2;ratioP2;P2;SDS_P1;SDS_P2;PMS_P1;PMS_P2;Temp;Humidity;BMP_temperature;BMP_pressure;BME280_temperature;BME280_humidity;BME280_pressure;Samples;Min_cycle;Max_cycle;Signal;HPM_P1;HPM_P2
2022/03/19 05:22:37;;;;;;;91.93;34.75;;;;;;;4.47;89.58;102418.09;5129502;27;20580;-70
2022/03/19 05:25:04;;;;;;;90.20;34.78;;;;;;;4.54;89.23;102432.66;5129601;28;20080;-70
2022/03/19 05:27:30;;;;;;;106.53;37.88;;;;;;;4.51;88.80;102432.84;5129436;28;20038;-71
2022/03/19 05:29:56;;;;;;;84.38;36.72;;;;;;;4.56;89.21;102436.09;5129549;28;20039;-70
2022/03/19 05:32:21;;;;;;;97.22;36.42;;;;;;;4.57;89.15;102427.22;5139997;22;20027;-73
2022/03/19 05:34:49;;;;;;;108.25;38.33;;;;;;;4.60;88.75;102434.13;5109214;28;20043;-73
2022/03/19 05:37:15;;;;;;;101.03;36.87;;;;;;;4.55;88.90;102423.78;5109132;28;20032;-73
2022/03/19 05:39:41;;;;;;;93.13;36.20;;;;;;;4.58;88.36;102418.38;5107678;28;20085;-73
2022/03/19 05:42:08;;;;;;;100.00;36.10;;;;;;;4.60;89.03;102428.84;5108465;28;20027;-72
2022/03/19 05:44:33;;;;;;;93.63;37.80;;;;;;;4.58;88.71;102426.28;5108843;28;20538;-73
2022/03/19 05:47:00;;;;;;;99.57;37.10;;;;;;;4.59;88.40;102435.91;5109036;28;20036;-72
2022/03/19 05:49:27;;;;;;;95.80;34.60;;;;;;;4.64;88.30;102435.69;5108850;28;20062;-73
2022/03/19 05:51:53;;;;;;;97.47;36.65;;;;;;;4.57;88.66;102416.66;5108421;28;20465;-73
2022/03/19 05:54:19;;;;;;;110.53;38.72;;;;;;;4.60;88.95;102427.06;5108655;28;20042;-73
2022/03/19 05:56:45;;;;;;;98.05;37.08;;;;;;;4.60;88.95;102431.47;5108620;28;20040;-72
2022/03/19 05:59:11;;;;;;;93.72;35.20;;;;;;;4.65;88.26;102421.53;5108520;28;20040;-73
2022/03/19 06:01:37;;;;;;;97.03;36.78;;;;;;;4.59;88.69;102421.88;5108292;28;20054;-74
2022/03/19 06:04:03;;;;;;;96.03;37.05;;;;;;;4.68;88.75;102431.91;5108386;28;20067;-74
2022/03/19 06:06:29;;;;;;;92.72;34.83;;;;;;;4.72;88.05;102424.69;5108456;28;20042;-74
2022/03/19 06:08:56;;;;;;;102.05;35.30;;;;;;;4.73;87.45;102432.53;5108579;28;20117;-74
2022/03/19 06:11:22;;;;;;;91.30;36.03;;;;;;;4.65;88.65;102428.59;5107076;28;20119;-74
2022/03/19 06:13:47;;;;;;;96.05;35.47;;;;;;;4.74;87.68;102422.81;5107998;28;20099;-74
2022/03/19 06:16:13;;;;;;;90.35;33.28;;;;;;;4.78;87.32;102427.88;5108279;28;20046;-74
2022/03/19 06:18:39;;;;;;;95.28;34.72;;;;;;;4.86;87.06;102428.28;5106930;28;20109;-74
2022/03/19 06:21:05;;;;;;;98.60;35.72;;;;;;;4.85;87.04;102425.75;5108173;28;20062;-74
2022/03/19 06:23:31;;;;;;;101.32;35.55;;;;;;;4.93;86.57;102426.16;5107786;28;20056;-73
2022/03/19 06:25:57;;;;;;;94.18;34.10;;;;;;;4.96;86.58;102431.31;5107987;28;20040;-74
2022/03/19 06:28:23;;;;;;;100.57;36.00;;;;;;;5.16;85.93;102443.41;5107919;28;20035;-74
2022/03/19 06:30:50;;;;;;;94.38;34.42;;;;;;;5.12;85.51;102434.78;5107918;28;20115;-73
2022/03/19 06:33:15;;;;;;;88.38;34.28;;;;;;;5.25;85.05;102434.97;5096649;28;20572;-74
2022/03/19 06:38:29;;;;;;;98.30;36.58;;;;;;;5.39;83.83;102431.53;5094140;28;20043;-74
2022/03/19 06:40:58;;;;;;;99.15;36.28;;;;;;;5.49;83.37;102437.16;5094118;28;20039;-74
2022/03/19 06:43:24;;;;;;;93.82;35.70;;;;;;;5.62;82.80;102444.31;5094524;28;20055;-74
2022/03/19 06:45:50;;;;;;;97.72;35.13;;;;;;;5.64;83.31;102437.13;5092950;28;20076;-74
2022/03/19 06:48:16;;;;;;;94.28;38.20;;;;;;;5.73;82.32;102438.38;5093857;28;20035;-74
2022/03/19 06:50:42;;;;;;;91.97;34.33;;;;;;;5.86;81.49;102427.94;5093962;28;20046;-74
2022/03/19 06:53:08;;;;;;;92.35;34.50;;;;;;;6.00;80.38;102433.34;5103300;28;20035;-73
2022/03/19 06:55:33;;;;;;;88.68;34.35;;;;;;;6.07;80.32;102439.97;5114714;28;20084;-72
2022/03/19 06:57:59;;;;;;;89.60;37.08;;;;;;;6.35;79.19;102433.84;5079264;28;20406;-74
2022/03/19 07:00:26;;;;;;;85.07;32.67;;;;;;;6.55;77.71;102424.69;5114605;28;20081;-74
2022/03/19 07:02:53;;;;;;;96.13;36.25;;;;;;;6.80;76.43;102427.53;5113795;28;20031;-74
2022/03/19 07:05:23;;;;;;;89.50;34.90;;;;;;;6.73;76.41;102434.16;5114309;28;20034;-72
2022/03/19 07:07:53;;;;;;;103.45;36.33;;;;;;;6.79;75.82;102422.34;5114060;28;20068;-72
2022/03/19 07:10:19;;;;;;;89.15;34.30;;;;;;;6.85;75.84;102419.31;5114053;28;20061;-72
2022/03/19 07:12:53;;;;;;;86.90;33.38;;;;;;;6.61;76.44;102424.31;5113539;28;20031;-72
2022/03/19 07:15:21;;;;;;;79.95;32.90;;;;;;;6.72;75.90;102411.28;5113976;28;20392;-72
2022/03/19 07:17:50;;;;;;;;;;;;;;;6.53;76.54;102416.00;5114443;28;20043;-71
2022/03/19 07:20:15;;;;;;;93.82;35.00;;;;;;;6.62;75.90;102410.13;5114184;28;19911;-71
2022/03/19 07:22:54;;;;;;;98.65;35.35;;;;;;;6.73;76.24;102410.31;5113856;28;20036;-71
2022/03/19 07:25:22;;;;;;;87.32;34.92;;;;;;;6.64;75.93;102402.94;5112608;28;20049;-72
2022/03/19 07:27:54;;;;;;;90.82;35.47;;;;;;;6.80;74.74;102408.16;5113787;28;20034;-72
2022/03/19 07:30:20;;;;;;;87.75;34.72;;;;;;;6.87;74.26;102398.00;5113521;28;20035;-71
2022/03/19 07:32:47;;;;;;;101.73;37.47;;;;;;;6.97;73.61;102404.41;5113141;28;20046;-71
2022/03/19 07:35:14;;;;;;;98.53;35.90;;;;;;;6.98;73.99;102406.13;5113690;28;20507;-70
2022/03/19 07:37:41;;;;;;;92.47;36.22;;;;;;;7.00;73.31;102409.53;5113721;28;20042;-71
2022/03/19 07:40:09;;;;;;;85.45;34.08;;;;;;;7.20;73.16;102401.16;5114329;28;20492;-69
2022/03/19 07:42:36;;;;;;;92.82;33.72;;;;;;;7.24;72.42;102392.06;5113104;28;20484;-70
2022/03/19 07:45:03;;;;;;;95.45;36.00;;;;;;;7.28;71.03;102396.19;5112545;28;20456;-70
2022/03/19 07:47:30;;;;;;;88.63;35.67;;;;;;;7.42;71.27;102397.94;5113331;28;20418;-70
2022/03/19 07:49:55;;;;;;;101.57;37.75;;;;;;;7.57;70.42;102406.72;5113420;27;20484;-70
2022/03/19 07:52:21;;;;;;;93.47;34.35;;;;;;;7.41;70.69;102409.50;5112789;28;20126;-70
2022/03/19 07:54:47;;;;;;;92.40;36.25;;;;;;;7.64;69.95;102393.91;5113190;28;20039;-70
2022/03/19 07:57:13;;;;;;;91.97;36.17;;;;;;;7.83;69.31;102403.16;5113248;28;20609;-70
2022/03/19 07:59:40;;;;;;;84.53;31.60;;;;;;;7.96;68.16;102403.19;5113072;28;20044;-70
2022/03/19 08:02:06;;;;;;;96.47;34.92;;;;;;;8.01;67.63;102395.75;5112655;28;20161;-71
2022/03/19 08:04:31;;;;;;;77.63;31.88;;;;;;;7.90;67.71;102400.94;5112966;28;20107;-70
2022/03/19 08:06:57;;;;;;;85.78;32.10;;;;;;;8.08;67.45;102389.06;5113137;28;20028;-70
2022/03/19 08:09:24;;;;;;;82.80;32.35;;;;;;;8.14;66.94;102387.78;5113311;28;20042;-70
2022/03/19 08:11:51;;;;;;;83.00;31.75;;;;;;;8.35;66.86;102388.13;5112608;28;20357;-70
2022/03/19 08:14:17;;;;;;;76.70;32.43;;;;;;;8.45;65.64;102397.19;5111669;28;20035;-70
2022/03/19 08:16:45;;;;;;;83.82;31.88;;;;;;;8.57;64.69;102388.34;5113025;28;20758;-70
2022/03/19 08:19:13;;;;;;;78.10;30.67;;;;;;;8.48;63.97;102382.84;5112884;28;20031;-70
2022/03/19 08:21:43;;;;;;;80.75;30.35;;;;;;;8.66;63.11;102392.16;5111307;28;20046;-71
2022/03/19 08:24:10;;;;;;;77.15;33.25;;;;;;;8.69;62.17;102378.66;5112635;28;20502;-71
2022/03/19 08:26:36;;;;;;;81.82;31.70;;;;;;;8.70;62.44;102385.69;5111426;28;20204;-71
2022/03/19 08:29:03;;;;;;;79.65;32.85;;;;;;;8.76;61.89;102395.88;5112537;28;20055;-70
2022/03/19 08:31:29;;;;;;;83.10;32.22;;;;;;;8.78;61.63;102378.00;5112589;28;20035;-70
2022/03/19 08:33:56;;;;;;;80.72;31.63;;;;;;;8.95;61.38;102369.66;5112169;28;20040;-70
2022/03/19 08:36:22;;;;;;;77.55;33.35;;;;;;;9.16;61.19;102367.25;5112635;28;20082;-71
2022/03/19 08:41:32;;;;;;;79.50;32.53;;;;;;;9.07;60.46;102359.97;5112301;28;20156;-70
2022/03/19 08:43:58;;;;;;;75.35;30.25;;;;;;;9.15;60.10;102362.03;5112288;28;20047;-70
2022/03/19 08:46:25;;;;;;;79.45;32.20;;;;;;;9.39;59.04;102362.91;5112313;28;20044;-70
2022/03/19 08:48:51;;;;;;;79.22;30.58;;;;;;;9.35;58.37;102364.09;5113047;28;20128;-70
2022/03/19 08:54:03;;;;;;;74.82;31.00;;;;;;;9.75;57.35;102371.72;5111829;28;20088;-71
2022/03/19 08:56:32;;;;;;;;;;;;;;;10.04;56.41;102365.03;5112463;28;20035;-71
2022/03/19 08:58:58;;;;;;;74.75;30.13;;;;;;;9.85;56.04;102369.22;5112201;28;20337;-71
2022/03/19 09:01:24;;;;;;;82.10;30.00;;;;;;;10.15;56.14;102371.31;5111973;28;20046;-71
2022/03/19 09:03:51;;;;;;;75.78;30.30;;;;;;;10.14;55.73;102364.31;5111914;28;20115;-70
2022/03/19 09:06:17;;;;;;;70.50;30.10;;;;;;;10.31;54.56;102377.22;5112103;28;20052;-70
2022/03/19 09:08:47;;;;;;;73.75;31.48;;;;;;;10.48;54.24;102362.53;5112515;28;20039;-70
2022/03/19 09:11:13;;;;;;;73.57;30.88;;;;;;;10.59;54.06;102371.38;5113121;28;20043;-70
2022/03/19 09:13:39;;;;;;;74.95;31.30;;;;;;;10.60;53.66;102358.91;5112689;28;20429;-70
2022/03/19 09:16:06;;;;;;;83.40;31.80;;;;;;;10.75;53.41;102359.50;5112690;28;20547;-71
2022/03/19 09:18:32;;;;;;;72.00;30.98;;;;;;;10.65;53.42;102348.72;5112108;28;20039;-71
2022/03/19 09:20:58;;;;;;;74.35;30.10;;;;;;;10.78;53.73;102357.44;5111911;28;20040;-70
2022/03/19 09:23:24;;;;;;;73.28;32.05;;;;;;;10.82;53.16;102344.69;5111332;28;20058;-71
2022/03/19 09:25:50;;;;;;;78.85;31.15;;;;;;;10.72;53.34;102343.75;5111884;28;20071;-70
2022/03/19 09:28:16;;;;;;;78.07;30.98;;;;;;;10.69;53.22;102344.84;5111826;28;20116;-71
2022/03/19 09:30:42;;;;;;;72.65;30.73;;;;;;;10.84;53.64;102338.28;5111714;28;20111;-70
2022/03/19 09:33:08;;;;;;;69.57;30.05;;;;;;;11.12;54.73;102331.53;5111393;28;20035;-71
2022/03/19 09:35:34;;;;;;;80.32;30.83;;;;;;;11.42;51.91;102337.97;5111925;28;20043;-68
2022/03/19 09:38:00;;;;;;;73.95;31.88;;;;;;;11.58;51.33;102324.19;5111993;28;20067;-69
2022/03/19 09:40:25;;;;;;;74.50;32.22;;;;;;;11.48;51.31;102325.94;5111930;28;20059;-69
2022/03/19 09:42:53;;;;;;;68.30;30.17;;;;;;;11.66;50.11;102322.56;5110182;28;20035;-70
2022/03/19 09:45:20;;;;;;;74.22;33.63;;;;;;;11.62;49.71;102331.81;5111655;28;20046;-70
2022/03/19 09:47:47;;;;;;;79.20;32.67;;;;;;;11.93;49.46;102321.22;5110837;28;20114;-70
2022/03/19 09:50:13;;;;;;;69.53;29.45;;;;;;;12.13;48.75;102298.13;5112247;28;20038;-72
2022/03/19 09:52:41;;;;;;;70.07;32.85;;;;;;;12.31;47.95;102290.31;5112371;28;20119;-72
2022/03/19 09:55:12;;;;;;;75.55;31.63;;;;;;;12.36;47.49;102290.75;5111990;28;20473;-72
2022/03/19 09:57:38;;;;;;;77.35;30.88;;;;;;;12.86;46.79;102293.44;5113225;28;20095;-70
2022/03/19 10:00:04;;;;;;;65.45;29.90;;;;;;;13.14;47.23;102279.22;5112508;28;20039;-72
2022/03/19 10:02:30;;;;;;;72.72;31.60;;;;;;;13.10;45.37;102277.78;5112027;28;20036;-71
2022/03/19 10:08:35;;;;;;;72.72;33.67;;;;;;;12.73;46.21;102266.94;5112233;28;20028;-71
2022/03/19 10:10:34;;;;;;;67.50;32.40;;;;;;;13.53;44.15;102264.00;5114223;28;20031;-71
2022/03/19 10:13:05;;;;;;;66.88;31.77;;;;;;;13.52;44.15;102258.81;5115014;28;20050;-71
2022/03/19 10:15:31;;;;;;;73.28;33.67;;;;;;;13.58;43.96;102252.88;5115317;28;20747;-72
2022/03/19 10:18:01;;;;;;;71.55;31.80;;;;;;;13.41;43.85;102251.75;5114096;28;20097;-71
2022/03/19 10:20:27;;;;;;;67.97;34.28;;;;;;;13.79;43.22;102256.19;5115382;28;20043;-71
2022/03/19 10:22:56;;;;;;;70.20;33.15;;;;;;;13.99;43.11;102237.38;5114850;28;20077;-72
2022/03/19 10:25:22;;;;;;;77.65;34.17;;;;;;;14.04;42.69;102237.78;5115477;28;20039;-72
2022/03/19 10:27:47;;;;;;;78.20;35.08;;;;;;;14.24;42.30;102231.31;5115230;28;20053;-71
2022/03/19 10:30:16;;;;;;;76.90;34.42;;;;;;;14.40;42.15;102236.03;5115128;28;20057;-71
2022/03/19 10:32:46;;;;;;;71.47;35.63;;;;;;;14.52;41.79;102226.81;5115088;28;20114;-72
2022/03/19 10:35:32;;;;;;;80.72;35.72;;;;;;;14.33;41.72;102246.50;5115381;28;20035;-71
2022/03/19 10:38:00;;;;;;;77.90;36.50;;;;;;;14.21;42.01;102225.41;5115226;28;20035;-72
2022/03/19 10:40:37;;;;;;;79.25;35.95;;;;;;;14.31;42.00;102210.13;5113663;28;20113;-72
2022/03/19 10:43:06;;;;;;;70.25;35.08;;;;;;;14.72;41.27;102214.09;5114304;28;20488;-71
2022/03/19 10:45:32;;;;;;;74.32;34.88;;;;;;;15.40;39.71;102200.94;5114642;28;20027;-71
2022/03/19 10:48:00;;;;;;;75.28;37.70;;;;;;;14.99;39.40;102196.22;5114754;28;20400;-71
2022/03/19 10:50:26;;;;;;;76.65;37.20;;;;;;;15.46;39.45;102186.88;5114615;28;20100;-71
2022/03/19 10:52:52;;;;;;;74.60;37.40;;;;;;;15.82;38.23;102176.00;5114059;28;20043;-70
2022/03/19 10:55:19;;;;;;;71.93;37.05;;;;;;;15.39;39.39;102177.78;5114798;28;20023;-72
2022/03/19 10:57:46;;;;;;;77.38;37.88;;;;;;;15.96;38.06;102166.47;5113732;28;20118;-70
2022/03/19 11:00:13;;;;;;;66.97;33.72;;;;;;;16.19;36.21;102164.91;5113541;28;20070;-70
2022/03/19 11:02:45;;;;;;;71.47;35.83;;;;;;;16.12;37.54;102146.91;5114400;28;20052;-71
2022/03/19 11:05:12;;;;;;;66.28;33.53;;;;;;;15.85;36.31;102161.44;5114912;28;20032;-70
2022/03/19 11:07:42;;;;;;;64.65;32.85;;;;;;;16.25;35.77;102148.09;5114671;28;20023;-70
2022/03/19 11:10:12;;;;;;;63.00;31.08;;;;;;;16.14;35.03;102139.50;5114470;28;20089;-70
2022/03/19 11:12:42;;;;;;;63.80;32.25;;;;;;;16.12;36.02;102136.16;5114180;28;20042;-70
2022/03/19 11:15:09;;;;;;;63.03;32.38;;;;;;;16.22;34.74;102142.22;5114903;28;20434;-70
2022/03/19 11:17:37;;;;;;;;;;;;;;;16.52;34.78;102133.53;5114799;28;20487;-70
2022/03/19 11:20:06;;;;;;;59.00;30.67;;;;;;;16.52;33.83;102144.28;5114300;28;19918;-70
2022/03/19 11:22:41;;;;;;;57.80;30.23;;;;;;;16.59;33.16;102132.88;5113830;28;20057;-70
2022/03/19 11:25:25;;;;;;;54.22;29.13;;;;;;;17.44;31.85;102120.69;5114439;28;20044;-70
2022/03/19 11:28:08;;;;;;;50.97;25.05;;;;;;;17.55;31.47;102128.41;5114123;28;20032;-70
2022/03/19 11:30:58;;;;;;;52.20;26.70;;;;;;;18.12;30.61;102111.13;5113962;27;20446;-70
2022/03/19 11:33:27;;;;;;;49.72;28.45;;;;;;;17.51;32.38;102113.56;5113903;28;20469;-70
2022/03/19 11:35:59;;;;;;;53.97;28.95;;;;;;;17.61;31.35;102114.22;5113685;28;20032;-70
2022/03/19 11:38:25;;;;;;;50.50;28.40;;;;;;;16.99;32.26;102113.19;5113696;28;20044;-70
2022/03/19 11:40:56;;;;;;;49.10;25.35;;;;;;;17.11;31.70;102090.28;5113511;28;20062;-70
2022/03/19 11:43:24;;;;;;;50.42;27.17;;;;;;;17.72;31.66;102102.25;5113273;28;20480;-70
2022/03/19 11:46:06;;;;;;;48.45;24.92;;;;;;;17.28;31.90;102093.81;5112186;28;20031;-70
2022/03/19 11:48:35;;;;;;;38.08;21.17;;;;;;;17.50;31.07;102084.13;5113478;28;20041;-70
2022/03/19 11:51:20;;;;;;;43.30;22.88;;;;;;;16.74;32.37;102080.91;5113246;28;20074;-70
2022/03/19 11:53:59;;;;;;;48.30;23.17;;;;;;;16.48;33.04;102073.00;5111774;28;20093;-70
2022/03/19 11:56:26;;;;;;;42.10;21.58;;;;;;;17.01;32.00;102087.78;5113358;28;20500;-70
2022/03/19 11:58:53;;;;;;;26.90;15.65;;;;;;;16.94;31.34;102067.09;5113222;28;20031;-70
2022/03/19 12:01:48;;;;;;;30.08;14.52;;;;;;;17.57;29.98;102069.78;5113265;28;20512;-70
2022/03/19 12:04:21;;;;;;;26.70;13.32;;;;;;;17.39;29.24;102055.69;5113266;28;20104;-70
2022/03/19 12:06:58;;;;;;;26.20;12.93;;;;;;;16.96;30.95;102055.19;5113139;28;20063;-70
2022/03/19 12:09:52;;;;;;;23.48;11.95;;;;;;;17.81;29.11;102062.63;5113246;28;20056;-69
2022/03/19 12:12:18;;;;;;;26.13;13.98;;;;;;;17.80;29.92;102067.19;5112474;28;20035;-69
2022/03/19 12:14:44;;;;;;;25.80;13.18;;;;;;;17.61;29.96;102049.56;5112886;28;20103;-70
2022/03/19 12:17:21;;;;;;;26.20;12.93;;;;;;;17.48;29.74;102040.38;5112830;28;20514;-70
2022/03/19 12:20:02;;;;;;;31.13;13.75;;;;;;;16.53;31.15;102032.16;5112859;28;20052;-70
2022/03/19 12:22:33;;;;;;;24.60;13.80;;;;;;;16.75;30.98;102022.56;5112391;28;20032;-70
2022/03/19 12:25:30;;;;;;;29.70;14.50;;;;;;;16.06;32.00;102029.28;5112709;28;20038;-70
2022/03/19 12:27:57;;;;;;;35.35;18.35;;;;;;;16.20;31.63;102007.13;5112720;28;20734;-70
2022/03/19 12:30:25;;;;;;;27.60;14.63;;;;;;;16.43;30.99;102007.25;5112071;28;20459;-70
2022/03/19 12:32:55;;;;;;;24.17;11.98;;;;;;;16.67;30.42;101999.16;5111842;28;20074;-70
2022/03/19 12:35:22;;;;;;;22.17;11.18;;;;;;;16.72;30.69;102006.78;5112474;28;20503;-71
2022/03/19 12:37:56;;;;;;;17.13;9.98;;;;;;;16.26;30.52;101982.25;5112410;28;20116;-70
2022/03/19 12:40:25;;;;;;;18.13;9.80;;;;;;;16.78;29.39;102003.41;5112544;28;20408;-70
2022/03/19 12:42:53;;;;;;;19.50;9.75;;;;;;;16.51;29.50;101986.59;5112105;28;20027;-70
2022/03/19 12:45:19;;;;;;;;;;;;;;;17.35;29.08;101995.13;5112820;28;20035;-70
2022/03/19 12:47:51;;;;;;;16.15;8.88;;;;;;;17.29;29.16;101976.97;5112266;27;19918;-70
2022/03/19 12:50:17;;;;;;;20.15;14.10;;;;;;;17.19;29.45;101984.41;5112563;28;20059;-70
2022/03/19 12:52:45;;;;;;;19.73;8.60;;;;;;;18.08;28.26;101965.03;5111858;28;20042;-71
2022/03/19 12:55:21;;;;;;;15.48;8.25;;;;;;;18.27;27.45;101961.00;5112162;28;20035;-70
2022/03/19 12:57:58;;;;;;;15.30;8.27;;;;;;;17.60;29.27;101955.41;5112164;28;20642;-71
2022/03/19 13:00:25;;;;;;;19.65;8.02;;;;;;;17.25;28.83;101944.16;5112192;28;20039;-71
2022/03/19 13:02:53;;;;;;;16.50;7.78;;;;;;;18.36;27.90;101932.94;5110300;28;20035;-70
2022/03/19 13:05:18;;;;;;;15.52;7.25;;;;;;;16.76;29.20;101935.47;5112259;27;20384;-71
2022/03/19 13:08:03;;;;;;;15.82;7.95;;;;;;;17.02;28.00;101944.13;5110769;28;20102;-71
2022/03/19 13:10:30;;;;;;;11.13;6.25;;;;;;;17.27;27.81;101935.91;5110783;28;20115;-71
2022/03/19 13:13:14;;;;;;;14.55;6.68;;;;;;;17.26;27.51;101932.38;5111675;28;20043;-70
2022/03/19 13:15:53;;;;;;;12.25;7.32;;;;;;;17.77;27.06;101926.53;5111868;28;20038;-70
2022/03/19 13:18:30;;;;;;;10.43;6.55;;;;;;;18.32;26.70;101911.88;5111892;28;20070;-70
2022/03/19 13:21:09;;;;;;;13.05;7.43;;;;;;;18.24;27.00;101920.06;5111835;28;20509;-70
2022/03/19 13:23:38;;;;;;;11.98;6.95;;;;;;;17.37;27.62;101928.44;5111461;28;20044;-70
2022/03/19 13:26:05;;;;;;;12.55;7.35;;;;;;;17.25;27.44;101919.09;5110494;28;20476;-70
2022/03/19 13:28:32;;;;;;;11.35;6.15;;;;;;;16.74;27.96;101913.25;5111828;28;20222;-70
2022/03/19 13:30:59;;;;;;;10.68;5.60;;;;;;;15.95;28.79;101907.66;5111569;28;20061;-70
2022/03/19 13:33:30;;;;;;;16.38;5.60;;;;;;;15.21;28.62;101905.84;5111141;28;20039;-70
2022/03/19 13:35:56;;;;;;;10.60;5.35;;;;;;;15.51;28.78;101911.59;5111827;28;20035;-70
2022/03/19 13:38:23;;;;;;;14.13;5.78;;;;;;;15.89;28.18;101908.31;5111673;28;20040;-70
2022/03/19 13:40:56;;;;;;;11.52;5.25;;;;;;;16.56;27.37;101902.69;5101012;28;20038;-70
2022/03/19 13:43:35;;;;;;;9.77;4.32;;;;;;;16.96;26.22;101888.28;5093085;28;20546;-70
2022/03/19 13:46:30;;;;;;;12.00;5.03;;;;;;;17.14;26.04;101874.53;5095420;28;20548;-70
2022/03/19 13:49:25;;;;;;;8.77;4.60;;;;;;;17.20;25.71;101875.69;5071389;28;20135;-70
2022/03/19 13:51:51;;;;;;;10.98;4.97;;;;;;;16.63;26.53;101884.03;5081402;28;20044;-70
2022/03/19 13:54:17;;;;;;;8.32;4.43;;;;;;;16.20;25.86;101860.09;5093815;28;20040;-70
2022/03/19 13:56:52;;;;;;;8.10;4.28;;;;;;;16.97;25.09;101876.50;5095202;28;20036;-70
2022/03/19 13:59:31;;;;;;;9.10;3.88;;;;;;;16.26;25.58;101880.91;5095127;28;20052;-70
2022/03/19 14:02:01;;;;;;;5.45;3.45;;;;;;;15.58;24.73;101848.16;5095213;28;20044;-70
2022/03/19 14:04:27;;;;;;;7.28;4.05;;;;;;;16.18;24.56;101872.03;5095518;28;20040;-70
2022/03/19 14:06:53;;;;;;;7.65;3.72;;;;;;;16.32;24.38;101865.09;5097192;28;20366;-70
2022/03/19 14:09:22;;;;;;;8.57;4.05;;;;;;;16.52;24.40;101848.41;5095749;28;20035;-70
2022/03/19 14:11:48;;;;;;;6.82;4.35;;;;;;;16.10;24.06;101853.19;5094923;28;20036;-70
2022/03/19 14:14:20;;;;;;;7.65;3.47;;;;;;;16.10;24.54;101855.88;5094920;28;20192;-70
2022/03/19 14:17:00;;;;;;;6.72;3.60;;;;;;;15.94;24.16;101854.91;5094967;28;20040;-71
2022/03/19 14:19:30;;;;;;;6.68;4.43;;;;;;;15.18;24.67;101845.25;5094664;28;20047;-70
2022/03/19 14:21:56;;;;;;;7.15;3.97;;;;;;;14.82;25.71;101846.53;5094431;28;20032;-70
2022/03/19 14:24:24;;;;;;;6.70;4.10;;;;;;;14.75;25.51;101827.56;5094684;28;20447;-70
2022/03/19 14:26:51;;;;;;;7.05;3.97;;;;;;;14.62;25.36;101836.06;5094751;28;20196;-70
2022/03/19 14:29:18;;;;;;;7.22;3.72;;;;;;;14.60;26.25;101835.34;5094506;28;20492;-70
2022/03/19 14:31:44;;;;;;;7.63;3.97;;;;;;;14.31;26.46;101829.50;5093080;28;20058;-70
2022/03/19 14:34:10;;;;;;;7.15;4.00;;;;;;;14.31;26.39;101822.28;5094413;28;20071;-70
2022/03/19 14:36:36;;;;;;;7.88;4.07;;;;;;;13.94;26.96;101822.56;5093513;28;20032;-70
2022/03/19 14:39:04;;;;;;;6.32;3.60;;;;;;;13.76;27.12;101805.72;5094519;28;20557;-70
2022/03/19 14:41:31;;;;;;;10.10;3.72;;;;;;;13.39;26.33;101808.59;5094130;28;20124;-72
2022/03/19 14:43:59;;;;;;;5.35;3.60;;;;;;;13.05;27.49;101817.25;5093945;28;20039;-72
2022/03/19 14:46:25;;;;;;;6.13;3.55;;;;;;;13.16;26.83;101800.13;5093097;28;20505;-70
2022/03/19 14:48:52;;;;;;;7.03;3.47;;;;;;;12.76;27.66;101806.72;5094333;28;20031;-71
2022/03/19 14:51:18;;;;;;;7.68;3.33;;;;;;;12.94;27.82;101793.41;5094212;28;20039;-71
2022/03/19 14:53:44;;;;;;;5.45;3.35;;;;;;;12.91;28.33;101805.25;5075256;28;20036;-70
2022/03/19 14:56:11;;;;;;;6.63;3.13;;;;;;;12.58;27.39;101804.00;5094199;28;20500;-70
2022/03/19 14:58:38;;;;;;;7.32;3.05;;;;;;;12.71;28.21;101809.00;5094006;28;20043;-69
2022/03/19 15:01:05;;;;;;;6.32;3.17;;;;;;;12.38;27.52;101805.09;5092956;28;20056;-70
2022/03/19 15:03:31;;;;;;;5.30;2.47;;;;;;;12.38;25.67;101810.44;5093700;28;20042;-69
2022/03/19 15:05:57;;;;;;;4.63;2.45;;;;;;;12.17;25.87;101808.84;5094046;28;20036;-70
2022/03/19 15:08:23;;;;;;;4.63;2.50;;;;;;;12.15;25.93;101812.66;5094007;28;20075;-70
2022/03/19 15:10:51;;;;;;;5.65;2.40;;;;;;;12.08;25.05;101801.69;5093756;28;20032;-70
2022/03/19 15:13:19;;;;;;;3.17;1.70;;;;;;;12.13;24.68;101795.94;5093454;28;20071;-70
2022/03/19 15:15:46;;;;;;;5.50;2.58;;;;;;;12.12;24.78;101792.38;5093883;28;20039;-70
2022/03/19 15:18:12;;;;;;;7.30;3.13;;;;;;;12.22;25.67;101787.88;5093934;28;20027;-70
2022/03/19 15:20:39;;;;;;;5.18;2.45;;;;;;;12.07;25.39;101786.66;5092403;28;20059;-70
2022/03/19 15:23:05;;;;;;;6.15;2.58;;;;;;;12.06;25.90;101793.00;5093310;28;20043;-70
2022/03/19 15:25:31;;;;;;;5.13;2.85;;;;;;;12.14;26.25;101790.44;5093561;28;20036;-70
2022/03/19 15:27:57;;;;;;;6.13;3.00;;;;;;;12.03;26.25;101792.44;5093372;28;20040;-69
2022/03/19 15:30:22;;;;;;;4.60;2.90;;;;;;;11.85;26.73;101774.50;5093483;28;20036;-70
2022/03/19 15:32:50;;;;;;;7.40;3.00;;;;;;;11.94;26.29;101787.00;5092881;28;20039;-69
2022/03/19 15:35:16;;;;;;;;;;;;;;;11.86;27.28;101783.34;5093803;28;20373;-70
2022/03/19 15:37:42;;;;;;;6.68;3.20;;;;;;;11.59;27.64;101786.72;5093274;28;19912;-69
2022/03/19 15:40:10;;;;;;;5.50;2.88;;;;;;;11.62;28.10;101778.44;5093308;28;20039;-70
2022/03/19 15:42:36;;;;;;;7.25;3.22;;;;;;;11.68;27.49;101788.56;5092685;28;20060;-69
2022/03/19 15:45:07;;;;;;;6.95;3.08;;;;;;;11.57;27.34;101781.53;5093158;28;20032;-69
2022/03/19 15:47:34;;;;;;;7.43;3.20;;;;;;;11.37;27.36;101785.22;5093129;28;20040;-69
2022/03/19 15:50:00;;;;;;;;;;;;;;;11.49;26.50;101793.91;5093594;28;20051;-69
2022/03/19 15:52:26;;;;;;;9.02;2.80;;;;;;;11.17;26.28;101778.19;5091193;28;20678;-69
2022/03/19 15:54:51;;;;;;;5.35;2.72;;;;;;;11.24;26.49;101790.00;5092923;28;20080;-69
2022/03/19 15:57:17;;;;;;;6.70;3.35;;;;;;;11.21;27.13;101784.91;5091701;28;20477;-69
2022/03/19 15:59:43;;;;;;;7.13;3.30;;;;;;;11.31;31.77;101791.94;5092861;28;20123;-72
2022/03/19 16:02:08;;;;;;;4.90;2.70;;;;;;;11.23;27.26;101788.31;5091084;28;20093;-69
2022/03/19 16:04:34;;;;;;;5.60;3.10;;;;;;;11.29;26.51;101791.25;5092542;28;20046;-69
2022/03/19 16:06:59;;;;;;;7.40;2.60;;;;;;;11.13;25.56;101783.78;5092211;28;20036;-69
2022/03/19 16:09:25;;;;;;;4.95;2.50;;;;;;;10.86;26.09;101776.47;5092589;28;20028;-69
2022/03/19 16:11:51;;;;;;;6.95;2.70;;;;;;;10.92;26.79;101775.09;5091993;28;20048;-69
2022/03/19 16:14:16;;;;;;;6.40;2.80;;;;;;;10.86;27.28;101781.81;5092494;28;20101;-69
2022/03/19 16:16:42;;;;;;;4.85;2.45;;;;;;;10.74;27.52;101780.22;5092625;28;20156;-69
2022/03/19 16:19:07;;;;;;;4.97;2.97;;;;;;;10.84;27.86;101774.94;5092551;28;20528;-69
2022/03/19 16:21:33;;;;;;;5.03;2.60;;;;;;;10.81;27.63;101764.53;5092263;28;20071;-69
2022/03/19 16:23:59;;;;;;;5.93;2.75;;;;;;;10.77;28.31;101769.31;5092290;28;20214;-69
2022/03/19 16:26:24;;;;;;;6.30;2.95;;;;;;;10.60;28.78;101760.16;5092361;28;20801;-69
2022/03/19 16:28:50;;;;;;;5.25;2.83;;;;;;;10.65;28.65;101777.56;5092607;28;20396;-69
2022/03/19 16:31:16;;;;;;;6.65;3.15;;;;;;;10.60;29.37;101776.13;5092060;28;20067;-69
2022/03/19 16:33:42;;;;;;;5.97;2.92;;;;;;;10.42;30.31;101752.94;5091820;28;20101;-69
2022/03/19 16:36:09;;;;;;;4.30;3.17;;;;;;;10.48;29.44;101765.72;5092179;28;20024;-69
2022/03/19 16:38:35;;;;;;;9.45;3.22;;;;;;;10.44;29.60;101759.00;5092154;28;20187;-70
2022/03/19 16:41:01;;;;;;;7.55;3.67;;;;;;;10.40;29.63;101763.75;5092150;28;20036;-69
2022/03/19 16:43:27;;;;;;;5.60;3.05;;;;;;;10.20;30.24;101769.94;5091831;28;20059;-69
2022/03/19 16:45:53;;;;;;;6.20;2.55;;;;;;;10.35;29.35;101765.97;5092044;28;20028;-69
2022/03/19 16:48:19;;;;;;;5.68;2.90;;;;;;;10.31;29.76;101775.22;5091872;28;20035;-69
2022/03/19 16:50:44;;;;;;;6.00;2.67;;;;;;;10.24;29.43;101760.75;5091880;28;20165;-69
2022/03/19 16:53:10;;;;;;;6.70;3.08;;;;;;;10.23;30.06;101773.19;5091325;28;20049;-70
2022/03/19 16:55:36;;;;;;;7.82;3.15;;;;;;;10.14;30.04;101776.66;5092029;28;20036;-70
2022/03/19 16:58:02;;;;;;;5.07;3.35;;;;;;;10.11;30.65;101771.59;5090535;28;20178;-70